Time;durP1;ratioP1;P1;durP2;ratioP2;P2;SDS_P1;SDS_P2;PMS_P1;PMS_P2;Temp;Humidity;BMP_temperature;BMP_pressure;BME280_temperature;BME280_humidity;BME280_pressure;Samples;Min_cycle;Max_cycle;Signal;HPM_P1;HPM_P2
2022/08/22 00:00:34;;;;;;;2.63;0.93;;;;;;;;;;5119965;28;20201;-63
2022/08/22 00:03:12;;;;;;;0.83;0.83;;;;;;;;;;5119746;27;20231;-63
2022/08/22 00:06:00;;;;;;;2.33;1.17;;;;;;;;;;5119702;28;20204;-63
2022/08/22 00:08:33;;;;;;;1.47;1.27;;;;;;;;;;5119734;28;20208;-63
2022/08/22 00:11:06;;;;;;;1.33;0.90;;;;;;;;;;5119326;28;20230;-63
2022/08/22 00:13:36;;;;;;;1.00;1.00;;;;;;;;;;5119444;27;20231;-63
2022/08/22 00:16:08;;;;;;;2.37;0.90;;;;;;;;;;5115700;28;20304;-63
2022/08/22 00:18:39;;;;;;;2.17;1.00;;;;;;;;;;5119681;28;20233;-63
2022/08/22 00:21:10;;;;;;;0.90;0.87;;;;;;;;;;5119245;28;20236;-63
2022/08/22 00:23:41;;;;;;;1.77;1.10;;;;;;;;;;5119047;28;20259;-63
2022/08/22 00:26:15;;;;;;;1.87;1.00;;;;;;;;;;5099251;28;20244;-62
2022/08/22 00:28:49;;;;;;;1.43;0.90;;;;;;;;;;5098595;28;20669;-63
2022/08/22 00:31:23;;;;;;;2.17;1.00;;;;;;;;;;5099070;28;20204;-63
2022/08/22 00:33:53;;;;;;;2.43;1.27;;;;;;;;;;5098760;28;20337;-63
2022/08/22 00:36:24;;;;;;;2.47;1.30;;;;;;;;;;5098861;28;20205;-62
2022/08/22 00:38:55;;;;;;;2.00;0.90;;;;;;;;;;5098772;28;20231;-63
2022/08/22 00:41:36;;;;;;;4.57;1.37;;;;;;;;;;5098520;28;20219;-63
2022/08/22 00:44:23;;;;;;;2.57;1.00;;;;;;;;;;5098628;28;20229;-63
2022/08/22 00:47:00;;;;;;;3.03;1.00;;;;;;;;;;5098353;28;20271;-63
2022/08/22 00:49:49;;;;;;;3.10;1.00;;;;;;;;;;5098280;28;20259;-63
2022/08/22 00:52:25;;;;;;;1.97;0.90;;;;;;;;;;5098152;28;20670;-63
2022/08/22 00:55:03;;;;;;;1.60;0.90;;;;;;;;;;5098405;28;20232;-63
2022/08/22 00:57:53;;;;;;;1.47;0.90;;;;;;;;;;5098273;28;20203;-62
2022/08/22 01:00:22;;;;;;;3.03;1.30;;;;;;;;;;5104594;28;20637;-63
2022/08/22 01:03:10;;;;;;;3.83;1.00;;;;;;;;;;5118409;28;20242;-64
2022/08/22 01:05:53;;;;;;;1.80;0.77;;;;;;;;;;5118776;28;20207;-62
2022/08/22 01:08:31;;;;;;;1.03;0.90;;;;;;;;;;5116671;28;20238;-63
2022/08/22 01:11:05;;;;;;;0.93;0.70;;;;;;;;;;5118191;28;20242;-63
2022/08/22 01:13:42;;;;;;;1.97;1.00;;;;;;;;;;5118350;28;20277;-63
2022/08/22 01:16:19;;;;;;;3.73;1.00;;;;;;;;;;5115245;28;20208;-62
2022/08/22 01:19:08;;;;;;;1.30;0.90;;;;;;;;;;5118333;28;20581;-63
2022/08/22 01:21:50;;;;;;;1.33;0.87;;;;;;;;;;5118364;28;20261;-62
2022/08/22 01:25:16;;;;;;;1.40;1.00;;;;;;;;;;5111083;28;20257;-63
2022/08/22 01:27:51;;;;;;;1.73;0.77;;;;;;;;;;5097445;28;20261;-63
2022/08/22 01:30:29;;;;;;;2.20;0.87;;;;;;;;;;5097721;28;20757;-63
2022/08/22 01:33:15;;;;;;;3.13;0.97;;;;;;;;;;5098041;28;20243;-62
2022/08/22 01:36:03;;;;;;;1.13;0.70;;;;;;;;;;5099600;28;20234;-63
2022/08/22 01:38:45;;;;;;;1.87;1.10;;;;;;;;;;5101915;28;20206;-63
2022/08/22 01:41:22;;;;;;;2.63;0.90;;;;;;;;;;5089174;28;20211;-65
2022/08/22 01:44:01;;;;;;;3.97;1.10;;;;;;;;;;5101777;28;20708;-63
2022/08/22 01:46:35;;;;;;;2.37;0.70;;;;;;;;;;5102183;28;20245;-63
2022/08/22 01:49:07;;;;;;;2.07;0.80;;;;;;;;;;5102078;28;20202;-63
2022/08/22 01:51:43;;;;;;;1.20;1.10;;;;;;;;;;5101547;28;20246;-63
2022/08/22 01:54:13;;;;;;;1.73;0.83;;;;;;;;;;5101903;28;20230;-63
2022/08/22 01:56:42;;;;;;;1.00;0.73;;;;;;;;;;5101283;28;20254;-63
2022/08/22 01:59:13;;;;;;;1.53;0.80;;;;;;;;;;5101690;28;20246;-64
2022/08/22 02:01:52;;;;;;;1.03;0.87;;;;;;;;;;5121596;28;20206;-63
2022/08/22 02:04:33;;;;;;;3.17;0.90;;;;;;;;;;5122061;28;20269;-64
2022/08/22 02:07:06;;;;;;;2.87;1.10;;;;;;;;;;5122187;28;20237;-64
2022/08/22 02:09:39;;;;;;;1.20;0.80;;;;;;;;;;5122017;28;20206;-64
2022/08/22 02:12:27;;;;;;;3.47;1.00;;;;;;;;;;5121369;28;20704;-62
2022/08/22 02:14:58;;;;;;;1.53;0.87;;;;;;;;;;5121977;28;20265;-64
2022/08/22 02:17:28;;;;;;;1.00;0.87;;;;;;;;;;5118724;28;20241;-65
2022/08/22 02:19:58;;;;;;;4.27;0.70;;;;;;;;;;5121648;28;20203;-64
2022/08/22 02:22:31;;;;;;;3.37;1.20;;;;;;;;;;5121535;28;20711;-64
2022/08/22 02:25:03;;;;;;;1.30;0.73;;;;;;;;;;5111025;28;20236;-63
2022/08/22 02:27:39;;;;;;;3.13;1.13;;;;;;;;;;5100959;28;20255;-64
2022/08/22 02:30:08;;;;;;;2.80;0.90;;;;;;;;;;5101226;28;20314;-64
2022/08/22 02:32:45;;;;;;;1.57;0.80;;;;;;;;;;5100897;28;20239;-64
2022/08/22 02:35:20;;;;;;;1.80;0.77;;;;;;;;;;5101272;28;20222;-64
2022/08/22 02:37:55;;;;;;;2.00;0.90;;;;;;;;;;5101039;28;20209;-64
2022/08/22 02:40:27;;;;;;;2.57;1.10;;;;;;;;;;5100550;28;20206;-64
2022/08/22 02:42:59;;;;;;;1.63;0.60;;;;;;;;;;5100605;28;20239;-64
2022/08/22 02:45:31;;;;;;;4.90;1.00;;;;;;;;;;5115191;28;20244;-64
2022/08/22 02:48:03;;;;;;;1.73;1.13;;;;;;;;;;5120550;28;20209;-64
2022/08/22 02:50:36;;;;;;;0.90;0.80;;;;;;;;;;5121183;28;20267;-64
2022/08/22 02:53:10;;;;;;;1.10;0.97;;;;;;;;;;5120379;28;20201;-64
2022/08/22 02:55:42;;;;;;;2.40;0.80;;;;;;;;;;5120744;28;20265;-64
2022/08/22 02:58:18;;;;;;;3.87;1.40;;;;;;;;;;5121050;28;20234;-64
2022/08/22 03:00:48;;;;;;;1.33;0.97;;;;;;;;;;5121088;27;20202;-64
2022/08/22 03:03:19;;;;;;;2.50;0.90;;;;;;;;;;5120752;28;20285;-64
2022/08/22 03:05:50;;;;;;;1.37;0.80;;;;;;;;;;5120806;28;20217;-64
2022/08/22 03:08:24;;;;;;;5.10;0.97;;;;;;;;;;5120585;28;20256;-64
2022/08/22 03:10:59;;;;;;;3.23;1.00;;;;;;;;;;5120021;28;20225;-64
2022/08/22 03:13:33;;;;;;;2.30;0.80;;;;;;;;;;5120521;28;20765;-64
2022/08/22 03:16:06;;;;;;;2.47;0.90;;;;;;;;;;5115644;28;20278;-64
2022/08/22 03:18:43;;;;;;;2.07;1.30;;;;;;;;;;5118898;27;20227;-64
2022/08/22 03:21:14;;;;;;;5.87;1.20;;;;;;;;;;5118384;28;20689;-64
2022/08/22 03:23:46;;;;;;;1.47;1.20;;;;;;;;;;5118279;28;20619;-64
2022/08/22 03:26:17;;;;;;;2.47;0.87;;;;;;;;;;5097995;28;20264;-64
2022/08/22 03:28:48;;;;;;;3.50;0.90;;;;;;;;;;5098549;28;20209;-64
2022/08/22 03:31:27;;;;;;;5.00;1.20;;;;;;;;;;5099773;28;20593;-64
2022/08/22 03:34:10;;;;;;;2.60;0.87;;;;;;;;;;5099646;28;20227;-64
2022/08/22 03:36:38;;;;;;;2.13;1.30;;;;;;;;;;5097683;28;20237;-64
2022/08/22 03:39:14;;;;;;;1.20;0.73;;;;;;;;;;5099688;28;20677;-64
2022/08/22 03:42:01;;;;;;;5.40;1.27;;;;;;;;;;5099466;28;20250;-64
2022/08/22 03:44:44;;;;;;;2.57;1.47;;;;;;;;;;5099626;28;20229;-64
2022/08/22 03:47:29;;;;;;;2.00;1.00;;;;;;;;;;5106193;28;20235;-64
2022/08/22 03:50:07;;;;;;;3.93;1.10;;;;;;;;;;5119530;28;20243;-65
2022/08/22 03:56:11;;;;;;;3.83;1.00;;;;;;;;;;5119743;28;20212;-64
2022/08/22 03:58:57;;;;;;;2.67;0.90;;;;;;;;;;5119299;28;20224;-64
2022/08/22 04:01:36;;;;;;;0.97;0.63;;;;;;;;;;5109801;27;20201;-64
2022/08/22 04:04:25;;;;;;;0.70;0.60;;;;;;;;;;5119622;28;20594;-64
2022/08/22 04:07:12;;;;;;;4.90;1.10;;;;;;;;;;5094610;27;20239;-64
2022/08/22 04:10:28;;;;;;;2.10;0.93;;;;;;;;;;5119510;28;20208;-64
2022/08/22 04:13:11;;;;;;;2.50;0.90;;;;;;;;;;5119533;27;20242;-64
2022/08/22 04:15:57;;;;;;;2.53;0.90;;;;;;;;;;5116787;28;20233;-64
2022/08/22 04:18:43;;;;;;;2.57;1.10;;;;;;;;;;5119649;28;20207;-64
2022/08/22 04:21:21;;;;;;;2.83;1.00;;;;;;;;;;5119011;28;20663;-64
2022/08/22 04:24:16;;;;;;;1.00;0.70;;;;;;;;;;5118208;28;20220;-64
2022/08/22 04:26:46;;;;;;;3.27;1.23;;;;;;;;;;5062793;28;20233;-65
2022/08/22 04:29:19;;;;;;;1.33;0.97;;;;;;;;;;5098651;28;20240;-64
2022/08/22 04:31:49;;;;;;;1.70;0.97;;;;;;;;;;5107874;28;20263;-64
2022/08/22 04:34:21;;;;;;;0.70;0.70;;;;;;;;;;5105715;28;20224;-64
2022/08/22 04:36:52;;;;;;;3.63;0.80;;;;;;;;;;5119127;28;20219;-64
2022/08/22 04:39:22;;;;;;;2.60;1.17;;;;;;;;;;5119271;28;20239;-64
2022/08/22 04:41:51;;;;;;;2.53;1.07;;;;;;;;;;5118476;28;20211;-64
2022/08/22 04:44:24;;;;;;;1.20;1.10;;;;;;;;;;5118669;28;20730;-64
2022/08/22 04:46:56;;;;;;;2.40;1.70;;;;;;;;;;5118951;28;20209;-64
2022/08/22 04:49:28;;;;;;;2.80;0.90;;;;;;;;;;5119126;28;20294;-64
2022/08/22 04:52:02;;;;;;;1.53;1.00;;;;;;;;;;5118594;28;20266;-64
2022/08/22 04:54:38;;;;;;;4.07;1.00;;;;;;;;;;5119002;28;20226;-64
2022/08/22 04:57:15;;;;;;;4.10;1.00;;;;;;;;;;5118324;28;20222;-64
2022/08/22 04:59:45;;;;;;;4.60;1.17;;;;;;;;;;5118653;28;20230;-64
2022/08/22 05:02:21;;;;;;;2.20;1.17;;;;;;;;;;5118853;28;20203;-64
2022/08/22 05:04:52;;;;;;;2.13;0.90;;;;;;;;;;5118407;28;20664;-64
2022/08/22 05:07:21;;;;;;;1.73;0.77;;;;;;;;;;5118625;28;20640;-64
2022/08/22 05:09:51;;;;;;;1.93;1.13;;;;;;;;;;5111636;27;20202;-64
2022/08/22 05:12:22;;;;;;;2.07;1.00;;;;;;;;;;5108109;28;20232;-64
2022/08/22 05:14:53;;;;;;;3.40;1.10;;;;;;;;;;5108713;28;20212;-64
2022/08/22 05:17:23;;;;;;;4.93;1.20;;;;;;;;;;5125244;27;20240;-64
2022/08/22 05:19:53;;;;;;;1.20;0.80;;;;;;;;;;5125851;27;20242;-64
2022/08/22 05:22:23;;;;;;;3.93;1.60;;;;;;;;;;5105218;27;20689;-64
2022/08/22 05:24:53;;;;;;;2.50;1.03;;;;;;;;;;5116699;28;20223;-64
2022/08/22 05:27:23;;;;;;;3.87;1.30;;;;;;;;;;5117728;28;20677;-63
2022/08/22 05:29:55;;;;;;;1.50;1.00;;;;;;;;;;5118219;28;20219;-64
2022/08/22 05:32:25;;;;;;;2.17;1.20;;;;;;;;;;5118041;28;20228;-64
2022/08/22 05:34:55;;;;;;;2.53;1.20;;;;;;;;;;5118215;28;20659;-64
2022/08/22 05:37:24;;;;;;;2.30;1.60;;;;;;;;;;5118133;28;20204;-64
2022/08/22 05:39:54;;;;;;;2.37;1.30;;;;;;;;;;5123538;28;20569;-64
2022/08/22 05:42:25;;;;;;;2.17;1.13;;;;;;;;;;5120422;28;20197;-64
2022/08/22 05:44:55;;;;;;;2.40;1.20;;;;;;;;;;5110817;28;20644;-64
2022/08/22 05:47:24;;;;;;;2.43;1.23;;;;;;;;;;5113233;28;20197;-63
2022/08/22 05:49:57;;;;;;;1.10;1.00;;;;;;;;;;5102693;28;20242;-63
2022/08/22 05:52:33;;;;;;;3.20;1.10;;;;;;;;;;5108740;28;20718;-63
2022/08/22 05:55:03;;;;;;;2.53;1.30;;;;;;;;;;5113758;28;20691;-64
2022/08/22 05:57:33;;;;;;;5.03;1.30;;;;;;;;;;5099875;28;20666;-63
2022/08/22 06:00:07;;;;;;;1.40;1.00;;;;;;;;;;5110893;28;20244;-64
2022/08/22 06:02:44;;;;;;;5.63;1.17;;;;;;;;;;5111144;28;20233;-63
2022/08/22 06:05:12;;;;;;;1.10;0.83;;;;;;;;;;5106960;28;20228;-63
2022/08/22 06:07:42;;;;;;;2.33;1.20;;;;;;;;;;5117782;28;20211;-63
2022/08/22 06:10:17;;;;;;;1.37;0.87;;;;;;;;;;5117809;28;20295;-63
2022/08/22 06:12:49;;;;;;;3.33;1.37;;;;;;;;;;5107126;28;20252;-63
2022/08/22 06:15:21;;;;;;;2.27;1.13;;;;;;;;;;5099717;28;20203;-63
2022/08/22 06:17:51;;;;;;;8.73;1.40;;;;;;;;;;5106385;28;20201;-62
2022/08/22 06:20:21;;;;;;;4.10;1.50;;;;;;;;;;5113081;28;20202;-63
2022/08/22 06:22:51;;;;;;;3.50;2.03;;;;;;;;;;5120462;28;20209;-63
2022/08/22 06:25:22;;;;;;;2.23;1.13;;;;;;;;;;5107247;28;20728;-63
2022/08/22 06:27:51;;;;;;;2.43;1.30;;;;;;;;;;5121340;27;20207;-63
2022/08/22 06:30:21;;;;;;;2.27;1.43;;;;;;;;;;5126345;27;20246;-63
2022/08/22 06:32:50;;;;;;;3.50;1.50;;;;;;;;;;5129273;27;20242;-63
2022/08/22 06:36:29;;;;;;;3.93;1.30;;;;;;;;;;5121560;27;20277;-63
2022/08/22 06:38:18;;;;;;;1.00;1.00;;;;;;;;;;5102098;28;20241;-63
2022/08/22 06:40:46;;;;;;;1.53;1.07;;;;;;;;;;5117862;28;20196;-62
2022/08/22 06:43:15;;;;;;;3.47;1.00;;;;;;;;;;5120848;27;20271;-63
2022/08/22 06:45:44;;;;;;;3.27;1.40;;;;;;;;;;5114488;27;20678;-63
2022/08/22 06:48:15;;;;;;;2.43;1.20;;;;;;;;;;5114396;28;20226;-60
2022/08/22 06:50:44;;;;;;;2.13;1.30;;;;;;;;;;5117617;28;20235;-62
2022/08/22 06:53:13;;;;;;;1.47;1.10;;;;;;;;;;5116929;28;20280;-60
2022/08/22 06:55:44;;;;;;;2.90;1.20;;;;;;;;;;5119860;27;20661;-61
2022/08/22 06:58:14;;;;;;;1.83;0.87;;;;;;;;;;5117244;27;20214;-63
2022/08/22 07:00:44;;;;;;;2.27;1.23;;;;;;;;;;5126220;27;20219;-59
2022/08/22 07:03:34;;;;;;;4.33;1.37;;;;;;;;;;5114700;27;20226;-60
2022/08/22 07:06:02;;;;;;;3.03;1.27;;;;;;;;;;5119549;27;20200;-63
2022/08/22 07:08:32;;;;;;;2.87;1.13;;;;;;;;;;5130853;27;20218;-62
2022/08/22 07:11:08;;;;;;;1.13;0.90;;;;;;;;;;5126801;27;20224;-62
2022/08/22 07:13:37;;;;;;;3.40;1.00;;;;;;;;;;5124674;27;20654;-62
2022/08/22 07:16:08;;;;;;;4.40;1.10;;;;;;;;;;5124964;27;20212;-62
2022/08/22 07:18:45;;;;;;;3.40;1.40;;;;;;;;;;5122163;27;20198;-62
2022/08/22 07:21:23;;;;;;;2.10;1.30;;;;;;;;;;5112463;27;20205;-63
2022/08/22 07:23:52;;;;;;;2.90;1.20;;;;;;;;;;5111127;27;20255;-63
2022/08/22 07:26:26;;;;;;;2.80;1.30;;;;;;;;;;5122999;27;20232;-63
2022/08/22 07:28:55;;;;;;;2.43;1.00;;;;;;;;;;5122936;27;20234;-63
2022/08/22 07:31:30;;;;;;;2.00;0.97;;;;;;;;;;5126136;27;20199;-63
2022/08/22 07:34:08;;;;;;;2.93;1.00;;;;;;;;;;5124521;27;20251;-63
2022/08/22 07:36:43;;;;;;;1.70;0.80;;;;;;;;;;5124700;27;20225;-60
2022/08/22 07:39:19;;;;;;;2.57;1.20;;;;;;;;;;5109261;28;20251;-62
2022/08/22 07:41:56;;;;;;;3.40;1.10;;;;;;;;;;5118463;28;20280;-61
2022/08/22 07:44:25;;;;;;;2.00;1.10;;;;;;;;;;5119920;28;20250;-62
2022/08/22 07:46:57;;;;;;;4.20;1.37;;;;;;;;;;5119972;28;20211;-62
2022/08/22 07:49:27;;;;;;;3.50;1.30;;;;;;;;;;5117455;28;20257;-62
2022/08/22 07:51:57;;;;;;;4.43;1.20;;;;;;;;;;5114053;28;20293;-60
2022/08/22 07:54:28;;;;;;;1.73;0.90;;;;;;;;;;5120661;27;20220;-61
2022/08/22 07:56:59;;;;;;;4.50;1.30;;;;;;;;;;5126308;27;20206;-61
2022/08/22 07:59:28;;;;;;;1.97;1.10;;;;;;;;;;5120933;27;20202;-62
2022/08/22 08:01:59;;;;;;;2.17;1.03;;;;;;;;;;5117107;28;20233;-61
2022/08/22 08:04:30;;;;;;;1.63;1.10;;;;;;;;;;5119482;28;20221;-61
2022/08/22 08:06:59;;;;;;;1.10;1.00;;;;;;;;;;5119328;28;20558;-61
2022/08/22 08:09:30;;;;;;;2.43;1.00;;;;;;;;;;5114426;28;20247;-61
2022/08/22 08:11:59;;;;;;;2.70;1.03;;;;;;;;;;5116657;28;20207;-61
2022/08/22 08:14:27;;;;;;;3.70;1.20;;;;;;;;;;5118987;28;20671;-61
2022/08/22 08:16:57;;;;;;;1.40;1.10;;;;;;;;;;5118539;28;20207;-61
2022/08/22 08:19:27;;;;;;;1.73;1.23;;;;;;;;;;5117154;28;20232;-61
2022/08/22 08:21:56;;;;;;;2.93;1.10;;;;;;;;;;5116059;28;20197;-62
2022/08/22 08:24:26;;;;;;;1.90;1.40;;;;;;;;;;5117483;27;20232;-62
2022/08/22 08:29:53;;;;;;;3.73;1.20;;;;;;;;;;5112323;28;20218;-62
2022/08/22 08:32:22;;;;;;;3.63;1.43;;;;;;;;;;5116056;27;20228;-61
2022/08/22 08:34:52;;;;;;;3.07;1.03;;;;;;;;;;5113452;28;20258;-62
2022/08/22 08:37:22;;;;;;;1.10;0.70;;;;;;;;;;5109272;28;20244;-61
2022/08/22 08:39:51;;;;;;;2.00;1.20;;;;;;;;;;5111502;28;20234;-61
2022/08/22 08:43:25;;;;;;;1.20;1.10;;;;;;;;;;5118509;28;20264;-61
2022/08/22 08:45:29;;;;;;;1.40;1.10;;;;;;;;;;5107907;28;20236;-61
2022/08/22 08:48:07;;;;;;;2.13;1.20;;;;;;;;;;5118924;28;20238;-61
2022/08/22 08:50:56;;;;;;;1.30;1.17;;;;;;;;;;5110807;28;20234;-61
2022/08/22 08:53:40;;;;;;;3.23;1.10;;;;;;;;;;5114267;28;20231;-61
2022/08/22 08:56:15;;;;;;;2.70;1.13;;;;;;;;;;5103156;28;20678;-62
2022/08/22 08:58:50;;;;;;;2.70;1.23;;;;;;;;;;5109516;28;20240;-61
2022/08/22 09:01:25;;;;;;;1.83;0.90;;;;;;;;;;5114041;28;20206;-61
2022/08/22 09:04:10;;;;;;;4.13;1.30;;;;;;;;;;5118514;27;20214;-62
2022/08/22 09:06:52;;;;;;;1.60;1.10;;;;;;;;;;5113170;27;20215;-62
2022/08/22 09:09:45;;;;;;;1.67;1.10;;;;;;;;;;5117250;27;20202;-62
2022/08/22 09:12:32;;;;;;;2.33;1.30;;;;;;;;;;5123068;27;20239;-61
2022/08/22 09:15:11;;;;;;;3.03;1.07;;;;;;;;;;5123702;27;20676;-62
2022/08/22 09:18:01;;;;;;;3.23;1.13;;;;;;;;;;5124590;27;20648;-66
2022/08/22 09:20:46;;;;;;;4.70;1.40;;;;;;;;;;5100278;27;20287;-65
2022/08/22 09:23:35;;;;;;;2.60;1.17;;;;;;;;;;5121253;27;20223;-66
2022/08/22 09:26:05;;;;;;;2.37;1.23;;;;;;;;;;5123912;27;20225;-67
2022/08/22 09:28:38;;;;;;;1.30;1.20;;;;;;;;;;5126107;28;20248;-69
2022/08/22 09:31:09;;;;;;;3.83;1.50;;;;;;;;;;5118900;28;20284;-68
2022/08/22 09:34:00;;;;;;;2.43;1.20;;;;;;;;;;5111583;28;20234;-70
2022/08/22 09:36:35;;;;;;;1.40;1.10;;;;;;;;;;5118318;28;20243;-61
2022/08/22 09:39:07;;;;;;;4.13;1.30;;;;;;;;;;5113772;28;20255;-61
2022/08/22 09:41:39;;;;;;;1.97;1.20;;;;;;;;;;5113578;28;20656;-61
2022/08/22 09:44:14;;;;;;;3.07;1.37;;;;;;;;;;5114130;28;20218;-62
2022/08/22 09:46:51;;;;;;;2.13;1.33;;;;;;;;;;5118129;28;20243;-62
2022/08/22 09:49:23;;;;;;;2.23;1.10;;;;;;;;;;5112279;28;20221;-61
2022/08/22 09:51:56;;;;;;;1.30;1.00;;;;;;;;;;5112124;28;20276;-62
2022/08/22 09:54:28;;;;;;;0.97;0.97;;;;;;;;;;5126558;27;20222;-62
2022/08/22 09:57:14;;;;;;;2.17;1.10;;;;;;;;;;5126867;27;20666;-62
2022/08/22 09:59:50;;;;;;;3.53;1.47;;;;;;;;;;5133627;27;20217;-61
2022/08/22 10:02:29;;;;;;;2.13;1.13;;;;;;;;;;5125147;27;20627;-62
2022/08/22 10:05:00;;;;;;;1.23;1.13;;;;;;;;;;5124797;27;20215;-62
2022/08/22 10:07:35;;;;;;;2.47;1.20;;;;;;;;;;5131546;27;20198;-62
2022/08/22 10:10:09;;;;;;;4.50;1.37;;;;;;;;;;5128381;27;20234;-62
2022/08/22 10:12:43;;;;;;;1.90;1.10;;;;;;;;;;5127586;27;20229;-60
2022/08/22 10:15:18;;;;;;;4.60;1.27;;;;;;;;;;5123531;27;20224;-62
2022/08/22 10:17:52;;;;;;;2.13;1.33;;;;;;;;;;5123288;27;20196;-62
2022/08/22 10:20:24;;;;;;;3.63;1.27;;;;;;;;;;5128144;27;20745;-62
2022/08/22 10:22:59;;;;;;;3.80;1.00;;;;;;;;;;5126167;27;20202;-62
2022/08/22 10:25:34;;;;;;;2.80;1.30;;;;;;;;;;5130325;27;20191;-62
2022/08/22 10:28:13;;;;;;;2.03;1.07;;;;;;;;;;5130036;27;20209;-62
2022/08/22 10:30:46;;;;;;;2.00;1.20;;;;;;;;;;5124590;27;20202;-61
2022/08/22 10:33:18;;;;;;;1.63;1.20;;;;;;;;;;5101180;28;20230;-62
2022/08/22 10:35:58;;;;;;;1.40;1.20;;;;;;;;;;5101074;28;20263;-62
2022/08/22 10:38:34;;;;;;;1.47;1.23;;;;;;;;;;5100837;28;20212;-62
2022/08/22 10:41:17;;;;;;;2.17;1.10;;;;;;;;;;5105486;28;20209;-62
2022/08/22 10:43:50;;;;;;;2.37;1.40;;;;;;;;;;5106909;27;20679;-61
2022/08/22 10:46:34;;;;;;;1.90;1.30;;;;;;;;;;5101735;28;20304;-62
2022/08/22 10:49:04;;;;;;;4.73;1.73;;;;;;;;;;5105967;28;20200;-62
2022/08/22 10:51:43;;;;;;;2.57;1.23;;;;;;;;;;5119866;28;20241;-62
2022/08/22 10:54:17;;;;;;;2.10;1.07;;;;;;;;;;5106856;28;20275;-61
2022/08/22 10:56:50;;;;;;;1.67;1.27;;;;;;;;;;5120718;28;20213;-61
2022/08/22 10:59:29;;;;;;;2.07;1.03;;;;;;;;;;5118770;27;20209;-61
2022/08/22 11:02:01;;;;;;;3.83;1.03;;;;;;;;;;5100261;28;20210;-62
2022/08/22 11:04:38;;;;;;;4.70;1.40;;;;;;;;;;5100131;28;20231;-62
2022/08/22 11:07:17;;;;;;;1.50;1.40;;;;;;;;;;5099870;28;20208;-62
2022/08/22 11:09:53;;;;;;;1.07;0.87;;;;;;;;;;5098669;28;20209;-62
2022/08/22 11:12:25;;;;;;;2.73;0.80;;;;;;;;;;5100182;28;20204;-62
2022/08/22 11:15:06;;;;;;;2.83;1.20;;;;;;;;;;5128302;27;20302;-61
2022/08/22 11:17:49;;;;;;;2.17;1.20;;;;;;;;;;5130546;27;20356;-61
2022/08/22 11:20:25;;;;;;;1.60;0.83;;;;;;;;;;5122622;27;20310;-61
2022/08/22 11:23:00;;;;;;;1.60;1.17;;;;;;;;;;5119656;27;20199;-61
2022/08/22 11:25:42;;;;;;;2.33;1.00;;;;;;;;;;5111514;27;20243;-61
2022/08/22 11:28:20;;;;;;;3.20;1.33;;;;;;;;;;5118503;27;20764;-61
2022/08/22 11:30:54;;;;;;;3.13;1.27;;;;;;;;;;5121830;27;20197;-61
2022/08/22 11:33:28;;;;;;;3.13;1.20;;;;;;;;;;5110889;28;20254;-61
2022/08/22 11:36:31;;;;;;;1.00;1.00;;;;;;;;;;5120084;28;20271;-61
2022/08/22 11:39:05;;;;;;;2.57;1.10;;;;;;;;;;5112728;28;20241;-62
2022/08/22 11:41:46;;;;;;;1.33;1.23;;;;;;;;;;5102493;28;20693;-61
2022/08/22 11:44:22;;;;;;;1.13;1.03;;;;;;;;;;5105017;27;20697;-62
2022/08/22 11:46:56;;;;;;;1.70;1.57;;;;;;;;;;5100692;28;20200;-62
2022/08/22 11:49:38;;;;;;;3.53;1.50;;;;;;;;;;5101770;28;20204;-62
2022/08/22 11:52:21;;;;;;;2.53;1.33;;;;;;;;;;5105682;28;20235;-62
2022/08/22 11:55:04;;;;;;;4.23;1.20;;;;;;;;;;5102791;28;20681;-62
2022/08/22 11:57:36;;;;;;;2.13;1.10;;;;;;;;;;5097263;28;20227;-62
2022/08/22 12:00:14;;;;;;;3.70;1.30;;;;;;;;;;5108369;28;20563;-62
2022/08/22 12:02:47;;;;;;;1.37;1.10;;;;;;;;;;5107842;28;20242;-62
2022/08/22 12:05:18;;;;;;;1.40;1.03;;;;;;;;;;5108705;28;20252;-62
2022/08/22 12:07:56;;;;;;;1.20;1.10;;;;;;;;;;5124037;27;20199;-62
2022/08/22 12:10:28;;;;;;;3.60;1.20;;;;;;;;;;5126614;27;20196;-62
2022/08/22 12:13:00;;;;;;;1.97;1.00;;;;;;;;;;5127820;27;20251;-62
2022/08/22 12:15:33;;;;;;;1.67;1.13;;;;;;;;;;5126197;27;20279;-62
2022/08/22 12:18:28;;;;;;;1.27;1.07;;;;;;;;;;5122217;27;20233;-62
2022/08/22 12:21:11;;;;;;;1.77;1.07;;;;;;;;;;5129089;27;20233;-61
2022/08/22 12:23:58;;;;;;;1.27;1.03;;;;;;;;;;5098831;28;20270;-61
2022/08/22 12:26:34;;;;;;;1.90;1.17;;;;;;;;;;5098314;28;20206;-61
2022/08/22 12:29:09;;;;;;;1.40;1.00;;;;;;;;;;5114969;27;20564;-61
2022/08/22 12:31:58;;;;;;;2.57;1.20;;;;;;;;;;5122039;27;20242;-61
2022/08/22 12:34:33;;;;;;;3.03;1.60;;;;;;;;;;5098437;28;20304;-60
2022/08/22 12:37:07;;;;;;;6.30;1.13;;;;;;;;;;5098435;28;20232;-61
2022/08/22 12:39:46;;;;;;;2.13;1.10;;;;;;;;;;5098531;28;20205;-61
2022/08/22 12:42:25;;;;;;;1.27;0.80;;;;;;;;;;5098557;28;20209;-61
2022/08/22 12:45:08;;;;;;;1.20;1.03;;;;;;;;;;5098833;28;20225;-61
2022/08/22 12:47:43;;;;;;;1.73;1.00;;;;;;;;;;5098354;28;20211;-61
2022/08/22 12:50:18;;;;;;;1.80;0.97;;;;;;;;;;5098090;28;20661;-61
2022/08/22 12:53:03;;;;;;;4.03;1.27;;;;;;;;;;5098386;28;20207;-61
2022/08/22 12:55:40;;;;;;;2.90;1.20;;;;;;;;;;5097804;28;20251;-61
2022/08/22 12:58:14;;;;;;;2.13;0.83;;;;;;;;;;5098420;28;20252;-61
2022/08/22 13:00:47;;;;;;;4.47;1.00;;;;;;;;;;5098446;28;20227;-61
2022/08/22 13:03:22;;;;;;;2.40;1.17;;;;;;;;;;5098308;28;20226;-61
2022/08/22 13:05:51;;;;;;;5.00;1.40;;;;;;;;;;5098146;28;20203;-61
2022/08/22 13:08:29;;;;;;;1.10;1.00;;;;;;;;;;5098145;28;20242;-61
2022/08/22 13:11:00;;;;;;;5.03;1.20;;;;;;;;;;5097709;28;20220;-61
2022/08/22 13:13:31;;;;;;;2.00;1.00;;;;;;;;;;5097899;28;20323;-61
2022/08/22 13:16:08;;;;;;;3.07;1.30;;;;;;;;;;5098266;28;20217;-61
2022/08/22 13:18:40;;;;;;;1.60;0.90;;;;;;;;;;5117981;28;20290;-61
2022/08/22 13:21:14;;;;;;;1.63;0.80;;;;;;;;;;5118173;28;20694;-61
2022/08/22 13:23:43;;;;;;;2.47;1.20;;;;;;;;;;5110582;28;20692;-61
2022/08/22 13:26:16;;;;;;;1.80;1.10;;;;;;;;;;5097728;28;20278;-61
2022/08/22 13:29:04;;;;;;;3.37;1.40;;;;;;;;;;5098042;28;20205;-61
2022/08/22 13:31:57;;;;;;;0.87;0.83;;;;;;;;;;5104768;28;20210;-61
2022/08/22 13:34:31;;;;;;;4.20;1.20;;;;;;;;;;5119470;28;20242;-60
2022/08/22 13:37:07;;;;;;;5.17;1.60;;;;;;;;;;5125562;28;20214;-60
2022/08/22 13:39:38;;;;;;;1.73;1.20;;;;;;;;;;5126629;28;20209;-60
2022/08/22 13:42:06;;;;;;;2.10;1.50;;;;;;;;;;5125139;28;20200;-61
2022/08/22 13:44:55;;;;;;;2.13;1.23;;;;;;;;;;5122919;28;20578;-60
2022/08/22 13:47:27;;;;;;;5.50;1.40;;;;;;;;;;5127180;28;20196;-60
2022/08/22 13:50:05;;;;;;;1.97;1.13;;;;;;;;;;5127501;27;20198;-60
2022/08/22 13:52:37;;;;;;;2.03;1.10;;;;;;;;;;5103285;27;20201;-60
2022/08/22 13:55:08;;;;;;;1.58;1.35;;;;;;;;;;5097562;28;20274;-60
2022/08/22 13:57:43;;;;;;;2.20;1.08;;;;;;;;;;5097359;28;20233;-60
2022/08/22 14:00:31;;;;;;;1.63;1.17;;;;;;;;;;5097506;28;20208;-60
2022/08/22 14:03:04;;;;;;;1.30;1.20;;;;;;;;;;5097397;28;20211;-60
2022/08/22 14:05:37;;;;;;;1.13;0.98;;;;;;;;;;5097805;28;20216;-61
2022/08/22 14:08:10;;;;;;;1.67;1.05;;;;;;;;;;5100069;28;20708;-62
2022/08/22 14:10:41;;;;;;;2.03;1.00;;;;;;;;;;5117473;28;20205;-61
2022/08/22 14:13:24;;;;;;;2.20;1.35;;;;;;;;;;5109502;28;20230;-61
2022/08/22 14:15:58;;;;;;;1.67;1.10;;;;;;;;;;5114415;28;20214;-61
2022/08/22 14:18:30;;;;;;;1.98;1.20;;;;;;;;;;5111736;28;20608;-63
2022/08/22 14:21:17;;;;;;;1.70;1.17;;;;;;;;;;5101861;28;20643;-60
2022/08/22 14:23:46;;;;;;;2.83;1.30;;;;;;;;;;5108552;28;20231;-60
2022/08/22 14:26:23;;;;;;;1.65;0.90;;;;;;;;;;5107808;28;20284;-59
2022/08/22 14:29:05;;;;;;;3.85;1.00;;;;;;;;;;5107862;28;20215;-59
2022/08/22 14:31:35;;;;;;;3.55;1.00;;;;;;;;;;5108915;28;20524;-59
2022/08/22 14:34:09;;;;;;;1.48;1.13;;;;;;;;;;5113919;28;20257;-60
2022/08/22 14:36:40;;;;;;;2.35;0.98;;;;;;;;;;5107822;28;20256;-59
2022/08/22 14:39:10;;;;;;;1.77;1.02;;;;;;;;;;5103315;28;20236;-59
2022/08/22 14:41:43;;;;;;;3.70;1.20;;;;;;;;;;5120877;28;20197;-59
2022/08/22 14:44:26;;;;;;;2.78;0.95;;;;;;;;;;5109386;28;20220;-60
2022/08/22 14:46:55;;;;;;;2.03;1.27;;;;;;;;;;5120768;27;20227;-59
2022/08/22 14:49:34;;;;;;;1.98;0.80;;;;;;;;;;5123823;27;20284;-61
2022/08/22 14:52:04;;;;;;;3.63;1.30;;;;;;;;;;5121551;27;20650;-60
2022/08/22 14:54:33;;;;;;;2.90;0.90;;;;;;;;;;5121962;27;20225;-60
2022/08/22 14:57:02;;;;;;;3.33;0.80;;;;;;;;;;5113844;28;20276;-60
2022/08/22 14:59:39;;;;;;;1.02;0.85;;;;;;;;;;5117012;28;20683;-60
2022/08/22 15:02:12;;;;;;;1.95;1.00;;;;;;;;;;5113717;28;20201;-60
2022/08/22 15:04:50;;;;;;;1.85;1.02;;;;;;;;;;5109516;28;20278;-61
2022/08/22 15:11:07;;;;;;;1.67;1.10;;;;;;;;;;5107944;28;20176;-61
2022/08/22 15:13:36;;;;;;;1.20;0.90;;;;;;;;;;5109118;27;20231;-61
2022/08/22 15:16:13;;;;;;;1.35;0.85;;;;;;;;;;5108560;28;20196;-60
2022/08/22 15:18:44;;;;;;;1.25;0.95;;;;;;;;;;5108103;27;20191;-60
2022/08/22 15:21:22;;;;;;;1.07;0.80;;;;;;;;;;5111756;27;20198;-60
2022/08/22 15:23:53;;;;;;;1.90;1.00;;;;;;;;;;5104526;28;20283;-60
2022/08/22 15:26:26;;;;;;;2.58;1.00;;;;;;;;;;5107661;28;20660;-60
2022/08/22 15:29:03;;;;;;;4.72;1.17;;;;;;;;;;5108363;28;20227;-60
2022/08/22 15:31:31;;;;;;;1.45;1.00;;;;;;;;;;5109289;28;20229;-60
2022/08/22 15:34:07;;;;;;;3.97;1.25;;;;;;;;;;5106653;28;20722;-60
2022/08/22 15:36:57;;;;;;;3.05;1.60;;;;;;;;;;5114963;28;20643;-60
2022/08/22 15:39:28;;;;;;;3.55;2.10;;;;;;;;;;5120152;28;20208;-60
2022/08/22 15:41:56;;;;;;;1.88;1.42;;;;;;;;;;5119604;28;20204;-60